createdAt,value
2023-05-15T00:00:52.958Z,73.30
2023-05-15T00:03:22.502Z,73.60
2023-05-15T00:05:50.805Z,73.80
2023-05-15T00:08:18.822Z,73.50
2023-05-15T00:10:57.409Z,73.50
2023-05-15T00:13:28.168Z,73.60
2023-05-15T00:15:56.215Z,73.90
2023-05-15T00:18:25.651Z,74.20
2023-05-15T00:20:53.826Z,74.40
2023-05-15T00:23:21.901Z,74.30
2023-05-15T00:25:49.998Z,74.30
2023-05-15T00:28:18.129Z,74.20
2023-05-15T00:30:46.180Z,74.00
2023-05-15T00:33:14.632Z,74.00
2023-05-15T00:35:44.104Z,74.30
2023-05-15T00:38:13.428Z,74.40
2023-05-15T00:40:43.176Z,74.50
2023-05-15T00:43:12.163Z,74.50
2023-05-15T00:45:41.720Z,74.70
2023-05-15T00:48:11.075Z,74.90
2023-05-15T00:50:41.409Z,75.10
2023-05-15T00:53:12.056Z,75.10
2023-05-15T00:55:41.661Z,75.30
2023-05-15T00:58:11.337Z,75.00
2023-05-15T01:00:40.096Z,75.00
2023-05-15T01:03:08.318Z,74.90
2023-05-15T01:05:36.533Z,74.70
2023-05-15T01:08:14.125Z,74.70
2023-05-15T01:10:45.231Z,74.70
2023-05-15T01:13:15.328Z,74.70
2023-05-15T01:15:44.574Z,74.70
2023-05-15T01:18:12.826Z,74.70
2023-05-15T01:20:51.899Z,74.70
2023-05-15T01:23:25.237Z,74.60
2023-05-15T01:26:33.676Z,74.30
2023-05-15T01:29:09.592Z,74.40
2023-05-15T01:31:40.784Z,74.00
2023-05-15T01:34:10.552Z,73.80
2023-05-15T01:36:44.090Z,73.80
2023-05-15T01:39:13.681Z,73.80
2023-05-15T01:41:52.316Z,74.00
2023-05-15T01:44:29.779Z,74.20
2023-05-15T01:47:02.744Z,74.30
2023-05-15T01:49:33.655Z,74.20
2023-05-15T01:52:07.674Z,74.20
2023-05-15T01:54:37.020Z,74.20
2023-05-15T01:57:07.072Z,73.90
2023-05-15T01:59:37.815Z,74.00
2023-05-15T02:02:07.096Z,74.00
2023-05-15T02:04:35.803Z,74.10
2023-05-15T02:07:05.231Z,74.00
2023-05-15T02:09:34.214Z,74.00
2023-05-15T02:12:03.494Z,73.90
2023-05-15T02:14:32.485Z,74.00
2023-05-15T02:17:01.985Z,74.00
2023-05-15T02:19:30.338Z,74.20
2023-05-15T02:21:58.420Z,74.10
2023-05-15T02:24:26.505Z,74.20
2023-05-15T02:27:01.928Z,74.20
2023-05-15T02:29:37.466Z,74.30
2023-05-15T02:32:15.577Z,74.30
2023-05-15T02:34:47.226Z,74.50
2023-05-15T02:37:18.188Z,74.50
2023-05-15T02:39:49.695Z,74.30
2023-05-15T02:42:18.674Z,74.10
2023-05-15T02:44:48.326Z,73.90
2023-05-15T02:47:18.626Z,73.50
2023-05-15T02:49:46.888Z,73.50
2023-05-15T02:52:15.900Z,73.50
2023-05-15T02:54:44.232Z,73.60
2023-05-15T02:57:12.299Z,73.80
2023-05-15T02:59:40.544Z,73.70
2023-05-15T03:02:08.629Z,73.70
2023-05-15T03:04:38.341Z,73.60
2023-05-15T03:07:06.423Z,73.80
2023-05-15T03:09:34.508Z,73.80
2023-05-15T03:12:02.557Z,74.00
2023-05-15T03:14:30.661Z,73.90
2023-05-15T03:16:58.747Z,73.90
2023-05-15T03:19:26.927Z,73.90
2023-05-15T03:21:56.368Z,73.90
2023-05-15T03:24:24.453Z,74.00
2023-05-15T03:26:52.533Z,74.10
2023-05-15T03:29:20.807Z,74.20
2023-05-15T03:31:48.968Z,74.20
2023-05-15T03:34:17.158Z,74.00
2023-05-15T03:36:45.235Z,73.80
2023-05-15T03:39:14.680Z,73.80
2023-05-15T03:41:42.743Z,74.00
2023-05-15T03:44:10.757Z,74.00
2023-05-15T03:46:38.891Z,74.00
2023-05-15T03:49:07.012Z,73.90
2023-05-15T03:51:35.208Z,73.80
2023-05-15T03:54:05.159Z,74.00
2023-05-15T03:56:34.720Z,74.10
2023-05-15T03:59:02.789Z,74.00
2023-05-15T04:01:30.870Z,74.20
2023-05-15T04:03:58.920Z,74.40
2023-05-15T04:06:26.988Z,74.60
2023-05-15T04:08:55.023Z,74.70
2023-05-15T04:11:23.872Z,75.00
2023-05-15T04:13:53.295Z,75.40
2023-05-15T04:16:21.408Z,75.60
2023-05-15T04:18:49.491Z,75.70
2023-05-15T04:21:17.639Z,75.90
2023-05-15T04:23:45.727Z,76.10
2023-05-15T04:26:13.843Z,76.10
2023-05-15T04:28:52.342Z,75.80
2023-05-15T04:31:26.059Z,75.60
2023-05-15T04:33:54.140Z,75.60
2023-05-15T04:36:22.505Z,75.60
2023-05-15T04:38:50.558Z,75.60
2023-05-15T04:41:18.892Z,75.50
2023-05-15T04:43:47.038Z,75.40
2023-05-15T04:46:15.186Z,75.30
2023-05-15T04:48:44.648Z,75.30
2023-05-15T04:51:12.822Z,75.40
2023-05-15T04:53:41.182Z,75.40
2023-05-15T04:56:09.345Z,75.40
2023-05-15T04:58:37.413Z,75.40
2023-05-15T05:01:05.778Z,75.50
2023-05-15T05:03:33.869Z,75.40
2023-05-15T05:06:03.454Z,75.40
2023-05-15T05:08:31.655Z,75.40
2023-05-15T05:10:59.742Z,75.50
2023-05-15T05:13:27.821Z,75.80
2023-05-15T05:15:55.916Z,75.90
2023-05-15T05:18:24.264Z,76.00
2023-05-15T05:21:00.404Z,76.10
2023-05-15T05:23:30.118Z,76.90
2023-05-15T05:25:58.420Z,76.30
2023-05-15T05:28:26.525Z,76.40
2023-05-15T05:30:54.600Z,76.40
2023-05-15T05:33:22.688Z,76.50
2023-05-15T05:35:51.636Z,76.80
2023-05-15T05:38:19.746Z,77.00
2023-05-15T05:40:49.161Z,77.10
2023-05-15T05:43:17.248Z,77.50
2023-05-15T05:45:45.284Z,77.50
2023-05-15T05:48:13.469Z,77.60
2023-05-15T05:50:42.337Z,77.60
2023-05-15T05:53:10.647Z,78.00
2023-05-15T05:55:38.827Z,78.40
2023-05-15T05:58:21.676Z,78.70
2023-05-15T06:00:53.448Z,78.90
2023-05-15T06:03:22.437Z,78.90
2023-05-15T06:05:50.959Z,79.10
2023-05-15T06:08:19.613Z,78.90
2023-05-15T06:10:48.272Z,78.60
2023-05-15T06:13:17.991Z,78.40
2023-05-15T06:15:46.499Z,78.20
2023-05-15T06:18:14.615Z,77.90
2023-05-15T06:20:43.435Z,77.80
2023-05-15T06:23:11.568Z,77.70
2023-05-15T06:25:39.741Z,78.30
2023-05-15T06:28:07.940Z,77.70
2023-05-15T06:30:37.396Z,77.70
2023-05-15T06:33:05.614Z,77.20
2023-05-15T06:35:33.705Z,76.80
2023-05-15T06:38:02.014Z,76.60
2023-05-15T06:40:30.240Z,76.30
2023-05-15T06:42:58.800Z,76.30
2023-05-15T06:45:27.325Z,76.20
2023-05-15T06:47:59.884Z,76.20
2023-05-15T06:50:29.664Z,76.00
2023-05-15T06:52:57.751Z,76.10
2023-05-15T06:55:26.245Z,76.20
2023-05-15T06:57:54.513Z,76.50
2023-05-15T07:00:23.090Z,76.50
2023-05-15T07:02:51.197Z,76.60
2023-05-15T07:05:21.851Z,76.80
2023-05-15T07:07:49.977Z,76.40
2023-05-15T07:10:18.193Z,76.70
2023-05-15T07:12:46.250Z,77.20
2023-05-15T07:15:14.299Z,76.30
2023-05-15T07:17:42.433Z,76.40
2023-05-15T07:20:11.307Z,76.20
2023-05-15T07:22:51.866Z,75.40
2023-05-15T07:25:23.734Z,74.90
2023-05-15T07:27:52.195Z,74.60
2023-05-15T07:30:20.469Z,74.70
2023-05-15T07:32:48.579Z,74.50
2023-05-15T07:35:18.445Z,74.90
2023-05-15T07:37:47.942Z,75.20
2023-05-15T07:40:16.552Z,75.10
2023-05-15T07:42:45.375Z,74.90
2023-05-15T07:45:13.620Z,74.20
2023-05-15T07:47:46.200Z,74.20
2023-05-15T07:50:14.605Z,74.10
2023-05-15T07:52:43.191Z,73.60
2023-05-15T07:55:13.935Z,73.10
2023-05-15T07:57:42.332Z,72.90
2023-05-15T08:00:11.669Z,72.90
2023-05-15T08:02:40.012Z,72.80
2023-05-15T08:05:08.782Z,72.00
2023-05-15T08:07:37.063Z,71.60
2023-05-15T08:10:06.313Z,71.90
2023-05-15T08:12:35.912Z,72.00
2023-05-15T08:15:04.077Z,71.30
2023-05-15T08:17:32.181Z,71.20
2023-05-15T08:20:00.302Z,70.80
2023-05-15T08:22:30.321Z,70.40
2023-05-15T08:24:58.499Z,70.50
2023-05-15T08:27:26.804Z,69.80
2023-05-15T08:29:56.509Z,69.40
2023-05-15T08:32:24.674Z,68.50
2023-05-15T08:34:52.773Z,68.30
2023-05-15T08:37:20.841Z,68.30
2023-05-15T08:39:48.925Z,68.20
2023-05-15T08:42:22.415Z,67.90
2023-05-15T08:44:51.061Z,67.60
2023-05-15T08:47:21.107Z,67.10
2023-05-15T08:49:57.223Z,66.60
2023-05-15T08:52:26.501Z,65.20
2023-05-15T08:54:55.234Z,65.70
2023-05-15T08:57:23.673Z,64.40
2023-05-15T08:59:53.872Z,64.40
2023-05-15T09:02:25.358Z,63.80
2023-05-15T09:04:53.662Z,64.30
2023-05-15T09:07:22.041Z,65.20
2023-05-15T09:09:50.986Z,65.00
2023-05-15T09:12:20.386Z,64.90
2023-05-15T09:14:48.626Z,64.90
2023-05-15T09:17:16.822Z,64.30
2023-05-15T09:19:46.294Z,62.30
2023-05-15T09:22:18.264Z,61.80
2023-05-15T09:24:48.264Z,62.50
2023-05-15T09:27:16.479Z,61.90
2023-05-15T09:29:45.230Z,60.00
2023-05-15T09:32:15.067Z,59.80
2023-05-15T09:34:45.883Z,60.70
2023-05-15T09:37:28.990Z,61.00
2023-05-15T09:39:57.104Z,60.30
2023-05-15T09:42:25.925Z,57.90
2023-05-15T09:44:53.974Z,57.20
2023-05-15T09:47:22.122Z,57.70
2023-05-15T09:49:52.070Z,56.80
2023-05-15T09:52:20.268Z,56.10
2023-05-15T09:54:50.243Z,57.00
2023-05-15T09:57:24.071Z,58.30
2023-05-15T09:59:52.203Z,58.20
2023-05-15T10:02:32.012Z,57.90
2023-05-15T10:05:02.158Z,57.10
2023-05-15T10:07:30.791Z,56.30
2023-05-15T10:09:59.382Z,56.10
2023-05-15T10:12:29.339Z,55.70
2023-05-15T10:14:58.478Z,56.20
2023-05-15T10:17:28.458Z,56.20
2023-05-15T10:19:59.986Z,56.40
2023-05-15T10:22:31.640Z,54.70
2023-05-15T10:25:01.628Z,54.70
2023-05-15T10:27:31.083Z,56.30
2023-05-15T10:30:01.142Z,53.60
2023-05-15T10:32:29.533Z,52.70
2023-05-15T10:34:58.713Z,52.80
2023-05-15T10:37:27.218Z,52.60
2023-05-15T10:39:58.555Z,52.60
2023-05-15T10:42:27.681Z,52.60
2023-05-15T10:45:00.108Z,52.60
2023-05-15T10:47:28.652Z,52.80
2023-05-15T10:49:56.707Z,52.80
2023-05-15T10:52:25.485Z,53.20
2023-05-15T10:54:54.464Z,53.30
2023-05-15T10:57:24.091Z,53.10
2023-05-15T10:59:52.189Z,53.10
2023-05-15T11:02:21.552Z,52.80
2023-05-15T11:04:49.760Z,52.50
2023-05-15T11:07:19.025Z,53.00
2023-05-15T11:09:47.135Z,53.00
2023-05-15T11:12:15.202Z,53.10
2023-05-15T11:15:05.834Z,53.10
2023-05-15T11:17:34.301Z,52.80
2023-05-15T11:20:02.571Z,53.30
2023-05-15T11:22:32.777Z,53.60
2023-05-15T11:25:03.050Z,53.50
2023-05-15T11:27:33.133Z,53.60
2023-05-15T11:30:11.978Z,53.80
2023-05-15T11:32:56.238Z,53.70
2023-05-15T11:35:27.718Z,53.30
2023-05-15T11:37:57.199Z,54.30
2023-05-15T11:40:27.628Z,54.80
2023-05-15T11:43:04.453Z,54.00
2023-05-15T11:45:36.145Z,53.60
2023-05-15T11:48:06.549Z,53.90
2023-05-15T11:50:36.317Z,53.90
2023-05-15T11:53:06.368Z,53.70
2023-05-15T11:55:35.898Z,53.10
2023-05-15T11:58:05.188Z,53.50
2023-05-15T12:00:35.047Z,53.10
2023-05-15T12:03:03.842Z,53.30
2023-05-15T12:05:32.171Z,52.80
2023-05-15T12:08:00.242Z,52.70
2023-05-15T12:10:28.514Z,52.80
2023-05-15T12:12:56.583Z,52.70
2023-05-15T12:15:24.835Z,52.60
2023-05-15T12:17:54.367Z,52.90
2023-05-15T12:20:22.783Z,52.70
2023-05-15T12:22:50.922Z,52.90
2023-05-15T12:25:19.010Z,52.80
2023-05-15T12:27:47.150Z,53.40
2023-05-15T12:30:15.686Z,52.90
2023-05-15T12:32:44.683Z,52.50
2023-05-15T12:35:14.452Z,52.30
2023-05-15T12:37:43.221Z,51.90
2023-05-15T12:40:12.358Z,51.50
2023-05-15T12:42:44.092Z,50.70
2023-05-15T12:45:15.647Z,49.70
2023-05-15T12:47:44.808Z,51.80
2023-05-15T12:50:16.570Z,50.60
2023-05-15T12:52:48.156Z,49.50
2023-05-15T12:55:19.639Z,51.30
2023-05-15T12:57:47.746Z,49.80
2023-05-15T13:00:16.857Z,49.40
2023-05-15T13:02:45.724Z,49.50
2023-05-15T13:05:15.781Z,48.30
2023-05-15T13:07:45.286Z,48.00
2023-05-15T13:10:14.278Z,47.70
2023-05-15T13:12:45.227Z,47.90
2023-05-15T13:15:26.220Z,47.90
2023-05-15T13:17:57.417Z,47.50
2023-05-15T13:20:27.278Z,47.80
2023-05-15T13:22:55.906Z,47.80
2023-05-15T13:25:23.969Z,48.20
2023-05-15T13:27:52.632Z,48.10
2023-05-15T13:30:20.910Z,48.00
2023-05-15T13:32:49.000Z,48.00
2023-05-15T13:35:17.524Z,48.10
2023-05-15T13:37:47.041Z,48.50
2023-05-15T13:40:15.468Z,49.00
2023-05-15T13:42:44.277Z,49.50
2023-05-15T13:45:14.616Z,49.70
2023-05-15T13:47:43.459Z,49.70
2023-05-15T13:50:12.968Z,49.70
2023-05-15T13:52:42.249Z,49.80
2023-05-15T13:55:12.474Z,49.80
2023-05-15T13:57:41.976Z,49.80
2023-05-15T14:00:12.895Z,50.00
2023-05-15T14:02:41.591Z,50.00
2023-05-15T14:05:11.095Z,50.20
2023-05-15T14:07:39.393Z,50.20
2023-05-15T14:10:08.805Z,50.20
2023-05-15T14:12:38.479Z,50.10
2023-05-15T14:15:07.547Z,49.80
2023-05-15T14:17:35.849Z,49.50
2023-05-15T14:20:05.029Z,49.60
2023-05-15T14:22:33.256Z,49.70
2023-05-15T14:25:01.295Z,49.60
2023-05-15T14:27:29.393Z,49.50
2023-05-15T14:29:58.851Z,49.50
2023-05-15T14:32:26.886Z,49.60
2023-05-15T14:34:56.943Z,50.00
2023-05-15T14:37:24.956Z,50.20
2023-05-15T14:39:52.980Z,50.30
2023-05-15T14:42:22.212Z,50.30
2023-05-15T14:44:50.479Z,50.50
2023-05-15T14:47:19.863Z,50.60
2023-05-15T14:49:47.918Z,50.40
2023-05-15T14:52:15.977Z,50.40
2023-05-15T14:54:45.971Z,50.70
2023-05-15T14:57:20.317Z,50.80
2023-05-15T14:59:48.472Z,50.70
2023-05-15T15:02:16.504Z,50.70
2023-05-15T15:04:45.900Z,50.70
2023-05-15T15:07:13.941Z,51.10
2023-05-15T15:09:41.961Z,51.10
2023-05-15T15:12:10.129Z,51.30
2023-05-15T15:14:38.170Z,51.30
2023-05-15T15:17:06.441Z,51.30
2023-05-15T15:19:34.907Z,51.20
2023-05-15T15:22:04.310Z,51.20
2023-05-15T15:24:32.371Z,51.30
2023-05-15T15:27:00.402Z,51.00
2023-05-15T15:29:28.420Z,50.70
2023-05-15T15:31:56.480Z,50.40
2023-05-15T15:34:24.542Z,50.50
2023-05-15T15:36:52.563Z,50.60
2023-05-15T15:39:21.956Z,50.60
2023-05-15T15:41:50.011Z,50.50
2023-05-15T15:44:18.112Z,50.90
2023-05-15T15:46:46.163Z,51.10
2023-05-15T15:49:14.218Z,51.30
2023-05-15T15:51:42.296Z,51.30
2023-05-15T15:54:10.341Z,51.20
2023-05-15T15:56:40.317Z,51.50
2023-05-15T15:59:08.355Z,51.40
2023-05-15T16:01:36.873Z,51.90
2023-05-15T16:04:05.075Z,51.80
2023-05-15T16:06:34.260Z,52.00
2023-05-15T16:09:02.317Z,51.80
2023-05-15T16:11:30.766Z,52.00
2023-05-15T16:14:02.841Z,51.90
2023-05-15T16:16:32.166Z,52.00
2023-05-15T16:19:01.836Z,52.20
2023-05-15T16:21:32.573Z,52.20
2023-05-15T16:24:00.944Z,52.10
2023-05-15T16:26:29.184Z,52.10
2023-05-15T16:28:57.644Z,52.10
2023-05-15T16:31:27.141Z,51.90
2023-05-15T16:33:55.401Z,52.10
2023-05-15T16:36:23.445Z,52.20
2023-05-15T16:38:51.557Z,52.00
2023-05-15T16:41:19.617Z,51.90
2023-05-15T16:44:10.880Z,52.10
2023-05-15T16:46:40.322Z,52.00
2023-05-15T16:49:08.507Z,52.10
2023-05-15T16:51:36.522Z,52.10
2023-05-15T16:54:04.600Z,52.30
2023-05-15T16:56:32.640Z,52.20
2023-05-15T16:59:00.633Z,52.30
2023-05-15T17:01:28.680Z,52.50
2023-05-15T17:03:58.246Z,52.40
2023-05-15T17:06:26.288Z,52.40
2023-05-15T17:08:54.316Z,52.70
2023-05-15T17:11:22.624Z,52.70
2023-05-15T17:13:50.656Z,52.80
2023-05-15T17:16:18.769Z,52.70
2023-05-15T17:18:46.874Z,52.80
2023-05-15T17:21:16.288Z,52.90
2023-05-15T17:23:44.312Z,52.90
2023-05-15T17:26:12.349Z,53.10
2023-05-15T17:28:40.740Z,53.00
2023-05-15T17:31:11.595Z,53.10
2023-05-15T17:33:40.454Z,53.20
2023-05-15T17:36:09.196Z,53.30
2023-05-15T17:38:38.634Z,53.40
2023-05-15T17:41:07.727Z,53.50
2023-05-15T17:43:35.770Z,53.60
2023-05-15T17:46:05.660Z,53.70
2023-05-15T17:48:34.497Z,53.70
2023-05-15T17:51:02.680Z,53.90
2023-05-15T17:53:30.728Z,54.10
2023-05-15T17:56:01.063Z,54.00
2023-05-15T17:58:29.076Z,54.00
2023-05-15T18:00:57.198Z,54.10
2023-05-15T18:03:25.403Z,54.80
2023-05-15T18:05:53.782Z,54.20
2023-05-15T18:08:21.983Z,54.20
2023-05-15T18:10:50.032Z,54.30
2023-05-15T18:13:19.768Z,54.40
2023-05-15T18:15:47.835Z,54.40
2023-05-15T18:18:16.431Z,54.60
2023-05-15T18:20:44.738Z,54.70
2023-05-15T18:23:12.764Z,54.70
2023-05-15T18:25:40.786Z,55.00
2023-05-15T18:28:08.810Z,55.40
2023-05-15T18:30:38.203Z,55.60
2023-05-15T18:33:06.258Z,55.80
2023-05-15T18:35:34.418Z,55.60
2023-05-15T18:38:02.509Z,55.60
2023-05-15T18:40:30.594Z,55.60
2023-05-15T18:42:58.698Z,55.80
2023-05-15T18:45:27.068Z,56.00
2023-05-15T18:47:56.747Z,56.10
2023-05-15T18:50:25.392Z,56.30
2023-05-15T18:52:53.456Z,56.30
2023-05-15T18:55:22.699Z,56.30
2023-05-15T18:57:50.931Z,56.30
2023-05-15T19:00:34.051Z,56.50
2023-05-15T19:03:09.348Z,56.60
2023-05-15T19:05:37.464Z,56.80
2023-05-15T19:08:05.531Z,57.10
2023-05-15T19:10:33.589Z,57.30
2023-05-15T19:13:01.668Z,57.50
2023-05-15T19:15:29.750Z,57.80
2023-05-15T19:17:57.942Z,57.90
2023-05-15T19:20:27.640Z,58.00
2023-05-15T19:22:55.934Z,58.20
2023-05-15T19:25:24.379Z,58.20
2023-05-15T19:27:52.415Z,58.20
2023-05-15T19:30:20.985Z,58.20
2023-05-15T19:32:49.316Z,58.00
2023-05-15T19:35:17.408Z,58.00
2023-05-15T19:37:47.516Z,58.10
2023-05-15T19:40:16.002Z,58.30
2023-05-15T19:42:44.060Z,58.60
2023-05-15T19:45:12.666Z,58.70
2023-05-15T19:47:42.519Z,58.80
2023-05-15T19:50:11.355Z,59.00
2023-05-15T19:52:39.767Z,59.20
2023-05-15T19:55:10.131Z,59.70
2023-05-15T19:57:42.564Z,60.00
2023-05-15T20:00:12.394Z,60.90
2023-05-15T20:02:41.309Z,61.20
2023-05-15T20:05:10.489Z,62.30
2023-05-15T20:07:39.260Z,62.10
2023-05-15T20:10:10.554Z,62.50
2023-05-15T20:12:38.705Z,64.20
2023-05-15T20:15:08.517Z,63.80
2023-05-15T20:17:36.620Z,64.40
2023-05-15T20:20:08.212Z,64.30
2023-05-15T20:22:36.254Z,64.40
2023-05-15T20:25:04.483Z,64.40
2023-05-15T20:27:33.990Z,65.40
2023-05-15T20:30:03.443Z,66.00
2023-05-15T20:32:31.964Z,65.90
2023-05-15T20:35:00.524Z,66.10
2023-05-15T20:37:30.290Z,66.20
2023-05-15T20:39:59.003Z,66.40
2023-05-15T20:42:29.079Z,66.60
2023-05-15T20:44:58.504Z,67.00
2023-05-15T20:47:26.599Z,67.10
2023-05-15T20:49:54.779Z,67.10
2023-05-15T20:52:22.883Z,67.20
2023-05-15T20:54:50.912Z,67.40
2023-05-15T20:57:18.957Z,67.50
2023-05-15T20:59:46.956Z,67.50
2023-05-15T21:02:16.376Z,67.80
2023-05-15T21:04:44.674Z,67.90
2023-05-15T21:07:12.734Z,67.70
2023-05-15T21:09:40.750Z,67.90
2023-05-15T21:12:09.250Z,67.80
2023-05-15T21:14:37.266Z,67.80
2023-05-15T21:17:05.631Z,67.60
2023-05-15T21:19:35.089Z,67.70
2023-05-15T21:22:03.134Z,67.80
2023-05-15T21:24:31.175Z,68.00
2023-05-15T21:26:59.232Z,67.90
2023-05-15T21:29:27.256Z,68.20
2023-05-15T21:31:56.109Z,68.30
2023-05-15T21:34:24.144Z,68.50
2023-05-15T21:36:53.811Z,68.50
2023-05-15T21:39:21.870Z,68.70
2023-05-15T21:41:51.272Z,68.40
2023-05-15T21:44:19.327Z,68.40
2023-05-15T21:46:47.511Z,68.50
2023-05-15T21:49:15.591Z,68.50
2023-05-15T21:51:43.642Z,68.40
2023-05-15T21:54:13.172Z,70.20
2023-05-15T21:56:41.220Z,71.40
2023-05-15T21:59:11.315Z,71.20
2023-05-15T22:01:40.949Z,70.60
2023-05-15T22:04:09.416Z,69.90
2023-05-15T22:06:37.489Z,69.10
2023-05-15T22:09:06.099Z,68.10
2023-05-15T22:11:35.558Z,67.10
2023-05-15T22:14:09.994Z,67.40
2023-05-15T22:16:38.176Z,66.40
2023-05-15T22:19:06.379Z,66.30
2023-05-15T22:21:34.531Z,66.30
2023-05-15T22:24:04.476Z,66.20
2023-05-15T22:26:34.246Z,66.50
2023-05-15T22:29:03.746Z,66.50
2023-05-15T22:31:31.842Z,66.50
2023-05-15T22:33:59.915Z,66.70
2023-05-15T22:36:27.988Z,66.90
2023-05-15T22:38:56.032Z,67.30
2023-05-15T22:41:24.083Z,67.60
2023-05-15T22:43:52.114Z,68.00
2023-05-15T22:46:21.601Z,68.30
2023-05-15T22:48:49.656Z,68.70
2023-05-15T22:51:18.419Z,68.90
2023-05-15T22:53:46.495Z,69.10
2023-05-15T22:56:14.526Z,69.10
2023-05-15T22:58:42.665Z,69.20
2023-05-15T23:01:11.119Z,69.40
2023-05-15T23:03:40.563Z,69.40
2023-05-15T23:06:08.878Z,69.50
2023-05-15T23:08:36.899Z,69.60
2023-05-15T23:11:05.000Z,69.70
2023-05-15T23:13:33.035Z,69.70
2023-05-15T23:16:01.203Z,69.90
2023-05-15T23:18:29.525Z,70.00
2023-05-15T23:20:58.967Z,70.00
2023-05-15T23:23:26.999Z,70.10
2023-05-15T23:25:55.044Z,69.80
2023-05-15T23:28:23.088Z,69.60
2023-05-15T23:30:53.630Z,69.70
2023-05-15T23:33:21.802Z,69.90
2023-05-15T23:35:49.856Z,69.90
2023-05-15T23:38:19.366Z,70.20
2023-05-15T23:40:48.458Z,70.60
2023-05-15T23:43:16.748Z,70.80
2023-05-15T23:45:44.787Z,71.00
2023-05-15T23:48:12.940Z,71.10
2023-05-15T23:50:41.589Z,71.20
2023-05-15T23:53:09.656Z,71.20
2023-05-15T23:55:39.069Z,71.10
2023-05-15T23:58:07.129Z,71.20
